createdAt,value
2022-09-20T00:01:35.922Z,8.00
2022-09-20T00:04:05.774Z,7.50
2022-09-20T00:06:34.887Z,8.10
2022-09-20T00:09:03.678Z,8.30
2022-09-20T00:11:34.465Z,7.50
2022-09-20T00:14:08.309Z,8.20
2022-09-20T00:16:40.014Z,7.50
2022-09-20T00:19:16.280Z,7.50
2022-09-20T00:21:43.895Z,7.30
2022-09-20T00:24:11.731Z,6.50
2022-09-20T00:26:40.634Z,7.30
2022-09-20T00:29:08.379Z,7.80
2022-09-20T00:31:40.138Z,7.70
2022-09-20T00:34:29.440Z,7.30
2022-09-20T00:36:57.129Z,8.00
2022-09-20T00:39:24.994Z,8.80
2022-09-20T00:41:52.962Z,7.80
2022-09-20T00:44:48.070Z,8.10
2022-09-20T00:47:42.142Z,8.10
2022-09-20T00:50:24.708Z,7.80
2022-09-20T00:53:04.409Z,7.50
2022-09-20T00:55:36.361Z,8.50
2022-09-20T00:58:05.185Z,8.50
2022-09-20T01:00:33.278Z,8.20
2022-09-20T01:03:08.454Z,7.30
2022-09-20T01:05:38.633Z,8.00
2022-09-20T01:08:06.985Z,7.70
2022-09-20T01:10:35.011Z,8.20
2022-09-20T01:13:04.366Z,8.90
2022-09-20T01:15:35.342Z,10.10
2022-09-20T01:18:06.193Z,10.80
2022-09-20T01:20:39.225Z,10.40
2022-09-20T01:23:40.766Z,9.70
2022-09-20T01:26:44.132Z,10.10
2022-09-20T01:29:43.854Z,10.60
2022-09-20T01:32:20.647Z,11.20
2022-09-20T01:34:55.060Z,11.30
2022-09-20T01:37:34.544Z,11.40
2022-09-20T01:40:31.790Z,9.40
2022-09-20T01:43:21.432Z,10.00
2022-09-20T01:45:50.231Z,10.50
2022-09-20T01:48:39.966Z,10.30
2022-09-20T01:51:26.022Z,10.20
2022-09-20T01:54:43.097Z,10.60
2022-09-20T01:57:38.660Z,10.90
2022-09-20T02:00:16.132Z,9.60
2022-09-20T02:03:07.915Z,10.10
2022-09-20T02:06:07.738Z,10.00
2022-09-20T02:08:41.428Z,11.90
2022-09-20T02:11:19.644Z,11.40
2022-09-20T02:14:03.577Z,11.70
2022-09-20T02:16:50.248Z,10.80
2022-09-20T02:19:44.471Z,11.00
2022-09-20T02:22:56.346Z,11.80
2022-09-20T02:28:29.222Z,10.00
2022-09-20T02:31:12.449Z,11.40
2022-09-20T02:34:25.148Z,11.20
2022-09-20T02:37:34.846Z,11.40
2022-09-20T02:40:26.618Z,13.10
2022-09-20T02:43:44.534Z,12.10
2022-09-20T02:46:31.407Z,10.90
2022-09-20T02:49:28.691Z,10.60
2022-09-20T02:52:09.496Z,10.70
2022-09-20T02:55:07.779Z,10.90
2022-09-20T02:58:08.273Z,13.30
2022-09-20T03:00:50.603Z,12.80
2022-09-20T03:03:45.838Z,12.10
2022-09-20T03:06:57.759Z,12.10
2022-09-20T03:12:44.249Z,11.00
2022-09-20T03:15:37.112Z,12.70
2022-09-20T03:18:16.400Z,11.70
2022-09-20T03:21:05.345Z,11.90
2022-09-20T03:24:00.953Z,12.60
2022-09-20T03:27:06.395Z,11.80
2022-09-20T03:30:16.073Z,11.60
2022-09-20T03:33:45.192Z,12.20
2022-09-20T03:36:41.078Z,12.00
2022-09-20T03:39:59.795Z,12.70
2022-09-20T03:42:31.681Z,11.90
2022-09-20T03:45:23.396Z,13.10
2022-09-20T03:51:00.853Z,13.20
2022-09-20T03:53:57.457Z,12.60
2022-09-20T03:56:43.793Z,13.50
2022-09-20T03:59:36.134Z,13.00
2022-09-20T04:02:52.067Z,13.40
2022-09-20T04:05:47.873Z,13.10
2022-09-20T04:08:42.721Z,14.40
2022-09-20T04:11:31.258Z,13.60
2022-09-20T04:14:34.700Z,13.80
2022-09-20T04:17:20.568Z,13.60
2022-09-20T04:20:00.234Z,15.40
2022-09-20T04:22:29.508Z,14.80
2022-09-20T04:25:12.306Z,13.60
2022-09-20T04:27:59.842Z,13.60
2022-09-20T04:30:33.689Z,14.50
2022-09-20T04:33:18.177Z,13.40
2022-09-20T04:36:30.736Z,12.90
2022-09-20T04:39:34.186Z,12.70
2022-09-20T04:43:00.097Z,13.30
2022-09-20T04:46:01.751Z,13.30
2022-09-20T04:52:40.353Z,12.10
2022-09-20T04:55:35.455Z,12.70
2022-09-20T04:58:19.297Z,12.80
2022-09-20T05:01:16.619Z,13.10
2022-09-20T05:04:28.348Z,14.40
2022-09-20T05:07:45.996Z,12.90
2022-09-20T05:10:25.829Z,12.30
2022-09-20T05:13:15.810Z,13.10
2022-09-20T05:16:24.804Z,12.60
2022-09-20T05:19:13.129Z,12.20
2022-09-20T05:22:10.476Z,14.10
2022-09-20T05:25:07.743Z,12.80
2022-09-20T05:28:08.794Z,12.80
2022-09-20T05:30:49.639Z,13.90
2022-09-20T05:33:29.664Z,12.90
2022-09-20T05:36:18.961Z,12.50
2022-09-20T05:39:12.205Z,13.40
2022-09-20T05:41:59.534Z,12.70
2022-09-20T05:44:50.819Z,13.20
2022-09-20T05:47:34.810Z,12.20
2022-09-20T05:50:37.867Z,13.50
2022-09-20T05:53:45.815Z,12.90
2022-09-20T05:56:44.080Z,12.20
2022-09-20T05:59:32.314Z,12.80
2022-09-20T06:02:38.171Z,12.10
2022-09-20T06:05:38.560Z,12.10
2022-09-20T06:08:43.225Z,12.50
2022-09-20T06:11:32.220Z,12.00
2022-09-20T06:14:10.084Z,12.00
2022-09-20T06:16:53.875Z,13.00
2022-09-20T06:19:50.296Z,13.10
2022-09-20T06:22:33.188Z,12.70
2022-09-20T06:25:09.554Z,12.50
2022-09-20T06:27:51.240Z,11.70
2022-09-20T06:30:24.209Z,11.90
2022-09-20T06:32:55.679Z,12.20
2022-09-20T06:35:31.353Z,12.10
2022-09-20T06:39:02.445Z,13.30
2022-09-20T06:41:35.396Z,12.60
2022-09-20T06:44:06.405Z,12.10
2022-09-20T06:46:36.576Z,11.90
2022-09-20T06:49:08.214Z,12.20
2022-09-20T06:51:38.748Z,11.50
2022-09-20T06:54:13.755Z,12.60
2022-09-20T06:56:41.647Z,12.20
2022-09-20T06:59:11.381Z,11.40
2022-09-20T07:01:39.223Z,11.50
2022-09-20T07:04:07.585Z,12.40
2022-09-20T07:06:36.036Z,11.80
2022-09-20T07:09:05.586Z,12.10
2022-09-20T07:11:34.128Z,11.90
2022-09-20T07:14:02.612Z,12.40
2022-09-20T07:16:30.517Z,12.10
2022-09-20T07:18:59.856Z,11.70
2022-09-20T07:21:27.474Z,12.60
2022-09-20T07:23:55.194Z,12.20
2022-09-20T07:26:29.874Z,12.30
2022-09-20T07:28:59.878Z,12.00
2022-09-20T07:31:29.467Z,12.70
2022-09-20T07:33:57.492Z,12.30
2022-09-20T07:36:25.311Z,12.20
2022-09-20T07:38:53.648Z,10.60
2022-09-20T07:41:23.021Z,11.10
2022-09-20T07:43:51.111Z,11.50
2022-09-20T07:46:20.675Z,12.00
2022-09-20T07:48:48.414Z,11.90
2022-09-20T07:51:16.602Z,10.80
2022-09-20T07:53:44.305Z,10.40
2022-09-20T07:56:15.772Z,10.70
2022-09-20T08:01:22.480Z,10.10
2022-09-20T08:03:51.164Z,11.10
2022-09-20T08:06:21.240Z,10.40
2022-09-20T08:08:51.521Z,10.10
2022-09-20T08:11:28.792Z,10.30
2022-09-20T08:14:08.253Z,11.00
2022-09-20T08:16:43.439Z,10.30
2022-09-20T08:19:21.657Z,10.60
2022-09-20T08:21:53.292Z,10.10
2022-09-20T08:24:22.022Z,10.00
2022-09-20T08:26:49.648Z,11.00
2022-09-20T08:29:17.338Z,10.80
2022-09-20T08:31:45.138Z,11.20
2022-09-20T08:34:15.083Z,10.40
2022-09-20T08:36:46.817Z,11.20
2022-09-20T08:42:33.044Z,10.70
2022-09-20T08:45:21.829Z,10.60
2022-09-20T08:48:05.582Z,11.50
2022-09-20T08:50:36.774Z,11.20
2022-09-20T08:53:05.129Z,10.40
2022-09-20T08:55:37.507Z,10.90
2022-09-20T08:58:08.805Z,11.50
2022-09-20T09:03:12.804Z,11.30
2022-09-20T09:05:51.816Z,10.50
2022-09-20T09:08:24.032Z,11.10
2022-09-20T09:11:08.378Z,10.40
2022-09-20T09:13:53.725Z,11.00
2022-09-20T09:16:33.665Z,11.10
2022-09-20T09:22:05.874Z,10.40
2022-09-20T09:24:33.856Z,10.00
2022-09-20T09:27:17.000Z,8.30
2022-09-20T09:29:56.137Z,9.10
2022-09-20T09:32:34.257Z,9.10
2022-09-20T09:35:31.825Z,8.30
2022-09-20T09:38:02.529Z,9.20
2022-09-20T09:40:32.975Z,9.60
2022-09-20T09:43:04.209Z,8.60
2022-09-20T09:45:39.049Z,7.90
2022-09-20T09:48:20.902Z,7.60
2022-09-20T09:50:48.981Z,7.10
2022-09-20T09:53:22.732Z,6.80
2022-09-20T09:56:02.412Z,7.00
2022-09-20T09:59:10.647Z,7.00
2022-09-20T10:02:11.511Z,5.60
2022-09-20T10:04:57.432Z,5.40
2022-09-20T10:07:54.252Z,6.30
2022-09-20T10:10:34.282Z,6.40
2022-09-20T10:13:28.042Z,5.50
2022-09-20T10:16:15.215Z,5.60
2022-09-20T10:19:24.870Z,5.90
2022-09-20T10:22:18.531Z,4.20
2022-09-20T10:25:26.271Z,3.70
2022-09-20T10:28:29.498Z,4.50
2022-09-20T10:31:12.146Z,4.40
2022-09-20T10:34:08.436Z,3.00
2022-09-20T10:36:52.903Z,3.40
2022-09-20T10:39:31.987Z,2.90
2022-09-20T10:42:48.695Z,3.00
2022-09-20T10:46:03.880Z,3.10
2022-09-20T10:48:38.424Z,3.40
2022-09-20T10:51:44.455Z,4.00
2022-09-20T10:54:38.173Z,4.60
2022-09-20T10:57:46.705Z,4.30
2022-09-20T11:00:32.467Z,3.70
2022-09-20T11:03:43.443Z,4.20
2022-09-20T11:06:29.675Z,3.90
2022-09-20T11:09:01.354Z,4.50
2022-09-20T11:11:39.967Z,3.80
2022-09-20T11:14:14.949Z,3.90
2022-09-20T11:16:52.856Z,4.00
2022-09-20T11:19:35.881Z,4.40
2022-09-20T11:22:26.541Z,3.80
2022-09-20T11:25:21.669Z,3.50
2022-09-20T11:28:11.314Z,3.40
2022-09-20T11:30:54.321Z,2.90
2022-09-20T11:33:31.514Z,2.40
2022-09-20T11:36:05.376Z,2.90
2022-09-20T11:38:41.430Z,2.50
2022-09-20T11:41:15.638Z,3.30
2022-09-20T11:43:45.962Z,3.10
2022-09-20T11:46:29.624Z,2.60
2022-09-20T11:49:16.080Z,2.70
2022-09-20T11:51:55.673Z,2.90
2022-09-20T11:54:32.541Z,2.90
2022-09-20T11:57:00.625Z,2.20
2022-09-20T11:59:38.501Z,2.30
2022-09-20T12:02:51.531Z,2.40
2022-09-20T12:05:37.174Z,2.60
2022-09-20T12:08:24.651Z,2.70
2022-09-20T12:11:14.629Z,2.80
2022-09-20T12:14:01.606Z,2.70
2022-09-20T12:16:48.345Z,2.80
2022-09-20T12:19:32.234Z,2.70
2022-09-20T12:21:59.780Z,2.90
2022-09-20T12:24:40.906Z,2.80
2022-09-20T12:27:29.239Z,3.00
2022-09-20T12:30:23.272Z,2.50
2022-09-20T12:32:57.394Z,2.10
2022-09-20T12:35:58.028Z,2.40
2022-09-20T12:38:34.011Z,2.30
2022-09-20T12:41:14.560Z,2.40
2022-09-20T12:44:03.036Z,2.40
2022-09-20T12:46:41.106Z,2.30
2022-09-20T12:49:55.481Z,2.80
2022-09-20T12:52:50.544Z,2.90
2022-09-20T12:55:49.716Z,3.10
2022-09-20T12:58:24.160Z,2.40
2022-09-20T13:00:59.280Z,2.30
2022-09-20T13:03:36.347Z,2.50
2022-09-20T13:06:06.738Z,2.80
2022-09-20T13:08:53.218Z,2.50
2022-09-20T13:11:29.222Z,2.30
2022-09-20T13:14:06.146Z,2.30
2022-09-20T13:16:39.600Z,2.90
2022-09-20T13:19:29.601Z,3.00
2022-09-20T13:22:05.512Z,3.50
2022-09-20T13:24:39.401Z,3.40
2022-09-20T13:27:27.365Z,3.30
2022-09-20T13:29:55.658Z,3.30
2022-09-20T13:32:27.915Z,3.10
2022-09-20T13:35:24.032Z,2.70
2022-09-20T13:37:57.169Z,3.20
2022-09-20T13:40:49.581Z,3.50
2022-09-20T13:43:37.536Z,3.30
2022-09-20T13:46:31.055Z,3.40
2022-09-20T13:49:22.101Z,3.50
2022-09-20T13:51:51.045Z,3.40
2022-09-20T13:54:33.560Z,3.50
2022-09-20T13:57:06.733Z,3.80
2022-09-20T13:59:44.940Z,3.50
2022-09-20T14:02:32.266Z,3.80
2022-09-20T14:05:04.592Z,3.40
2022-09-20T14:07:33.808Z,3.10
2022-09-20T14:10:01.653Z,2.80
2022-09-20T14:12:29.728Z,3.00
2022-09-20T14:14:58.829Z,3.00
2022-09-20T14:17:35.936Z,2.90
2022-09-20T14:20:05.739Z,3.00
2022-09-20T14:22:33.808Z,2.70
2022-09-20T14:25:22.727Z,2.60
2022-09-20T14:28:28.903Z,2.60
2022-09-20T14:31:08.604Z,2.80
2022-09-20T14:33:44.677Z,2.60
2022-09-20T14:36:21.659Z,2.40
2022-09-20T14:38:54.189Z,2.50
2022-09-20T14:41:38.885Z,2.50
2022-09-20T14:44:23.702Z,2.40
2022-09-20T14:46:51.506Z,2.50
2022-09-20T14:49:25.224Z,2.40
2022-09-20T14:51:54.923Z,2.60
2022-09-20T14:54:29.982Z,2.30
2022-09-20T14:56:58.864Z,2.70
2022-09-20T14:59:36.832Z,2.40
2022-09-20T15:02:15.632Z,2.10
2022-09-20T15:04:55.093Z,2.20
2022-09-20T15:07:23.186Z,2.10
2022-09-20T15:09:50.882Z,2.30
2022-09-20T15:12:21.375Z,2.00
2022-09-20T15:14:49.212Z,2.40
2022-09-20T15:17:21.402Z,1.90
2022-09-20T15:19:50.093Z,1.90
2022-09-20T15:22:17.737Z,2.40
2022-09-20T15:24:45.464Z,2.40
2022-09-20T15:27:13.772Z,1.90
2022-09-20T15:29:41.434Z,2.00
2022-09-20T15:32:12.165Z,1.80
2022-09-20T15:34:39.845Z,2.00
2022-09-20T15:37:07.960Z,2.10
2022-09-20T15:39:35.589Z,2.10
2022-09-20T15:42:03.962Z,2.50
2022-09-20T15:44:32.596Z,2.30
2022-09-20T15:47:00.352Z,2.30
2022-09-20T15:49:28.769Z,2.10
2022-09-20T15:51:57.220Z,2.10
2022-09-20T15:54:26.603Z,2.20
2022-09-20T15:56:54.286Z,2.20
2022-09-20T15:59:23.316Z,2.00
2022-09-20T16:01:51.673Z,2.20
2022-09-20T16:04:20.392Z,2.00
2022-09-20T16:06:50.273Z,1.90
2022-09-20T16:09:19.460Z,1.90
2022-09-20T16:11:48.307Z,2.10
2022-09-20T16:14:16.108Z,1.90
2022-09-20T16:16:43.776Z,2.00
2022-09-20T16:19:17.731Z,2.10
2022-09-20T16:21:57.807Z,2.10
2022-09-20T16:24:33.962Z,2.30
2022-09-20T16:27:06.200Z,2.30
2022-09-20T16:29:34.518Z,2.20
2022-09-20T16:32:03.808Z,2.30
2022-09-20T16:34:35.501Z,2.60
2022-09-20T16:37:08.857Z,2.40
2022-09-20T16:39:36.536Z,2.50
2022-09-20T16:42:07.441Z,2.20
2022-09-20T16:44:38.389Z,2.70
2022-09-20T16:47:10.631Z,2.50
2022-09-20T16:49:39.569Z,2.20
2022-09-20T16:52:09.337Z,2.10
2022-09-20T16:54:37.127Z,2.10
2022-09-20T16:57:05.319Z,2.50
2022-09-20T16:59:32.992Z,2.40
2022-09-20T17:02:00.677Z,2.50
2022-09-20T17:04:28.369Z,2.90
2022-09-20T17:06:56.124Z,2.30
2022-09-20T17:09:23.826Z,2.30
2022-09-20T17:11:51.943Z,2.80
2022-09-20T17:14:20.783Z,2.20
2022-09-20T17:16:50.365Z,2.10
2022-09-20T17:19:20.882Z,2.10
2022-09-20T17:21:51.010Z,2.80
2022-09-20T17:24:21.676Z,4.80
2022-09-20T17:26:51.125Z,3.40
2022-09-20T17:29:20.476Z,4.30
2022-09-20T17:31:59.344Z,5.70
2022-09-20T17:34:29.462Z,3.20
2022-09-20T17:36:57.228Z,3.10
2022-09-20T17:39:25.028Z,3.10
2022-09-20T17:41:53.078Z,2.30
2022-09-20T17:44:20.799Z,2.50
2022-09-20T17:46:50.928Z,3.80
2022-09-20T17:49:21.935Z,5.10
2022-09-20T17:51:53.521Z,5.60
2022-09-20T17:54:23.329Z,5.40
2022-09-20T17:56:55.575Z,5.60
2022-09-20T17:59:24.531Z,5.70
2022-09-20T18:01:54.320Z,5.40
2022-09-20T18:04:24.336Z,5.00
2022-09-20T18:06:54.799Z,4.70
2022-09-20T18:09:25.454Z,4.90
2022-09-20T18:11:55.534Z,5.00
2022-09-20T18:14:27.512Z,4.90
2022-09-20T18:17:00.714Z,4.60
2022-09-20T18:19:34.733Z,4.00
2022-09-20T18:22:03.348Z,4.10
2022-09-20T18:24:32.329Z,3.50
2022-09-20T18:27:00.974Z,3.50
2022-09-20T18:29:31.639Z,3.70
2022-09-20T18:32:00.782Z,5.40
2022-09-20T18:34:33.551Z,6.10
2022-09-20T18:37:03.625Z,4.60
2022-09-20T18:39:33.720Z,3.50
2022-09-20T18:42:03.201Z,3.40
2022-09-20T18:44:34.618Z,3.10
2022-09-20T18:47:04.079Z,3.30
2022-09-20T18:49:32.585Z,3.00
2022-09-20T18:52:01.085Z,3.20
2022-09-20T18:54:33.308Z,3.10
2022-09-20T18:57:02.238Z,4.10
2022-09-20T18:59:30.350Z,3.50
2022-09-20T19:02:27.127Z,3.60
2022-09-20T19:05:11.949Z,3.10
2022-09-20T19:08:13.101Z,7.80
2022-09-20T19:10:48.608Z,24.20
2022-09-20T19:13:29.320Z,26.90
2022-09-20T19:16:37.005Z,28.40
2022-09-20T19:19:40.926Z,15.80
2022-09-20T19:22:23.932Z,16.40
2022-09-20T19:25:17.951Z,14.50
2022-09-20T19:27:45.973Z,12.50
2022-09-20T19:30:15.385Z,11.80
2022-09-20T19:32:44.011Z,10.50
2022-09-20T19:35:23.956Z,12.50
2022-09-20T19:38:00.582Z,13.10
2022-09-20T19:41:27.318Z,10.30
2022-09-20T19:44:17.627Z,9.20
2022-09-20T19:47:21.934Z,7.20
2022-09-20T19:50:11.200Z,4.10
2022-09-20T19:52:39.375Z,4.70
2022-09-20T19:55:11.033Z,5.80
2022-09-20T19:57:47.287Z,5.70
2022-09-20T20:00:19.269Z,4.70
2022-09-20T20:02:48.350Z,4.30
2022-09-20T20:05:20.089Z,4.00
2022-09-20T20:08:05.096Z,3.60
2022-09-20T20:11:12.747Z,4.20
2022-09-20T20:14:07.916Z,3.90
2022-09-20T20:17:00.576Z,4.30
2022-09-20T20:20:04.526Z,8.40
2022-09-20T20:22:45.996Z,7.30
2022-09-20T20:28:16.542Z,8.80
2022-09-20T20:30:44.261Z,9.70
2022-09-20T20:33:16.800Z,10.00
2022-09-20T20:35:53.913Z,8.90
2022-09-20T20:38:26.407Z,10.50
2022-09-20T20:41:04.722Z,11.20
2022-09-20T20:43:36.390Z,8.80
2022-09-20T20:46:06.766Z,8.50
2022-09-20T20:48:36.217Z,6.90
2022-09-20T20:51:13.723Z,5.40
2022-09-20T20:53:53.847Z,6.20
2022-09-20T20:56:28.703Z,5.70
2022-09-20T20:59:01.326Z,5.50
2022-09-20T21:01:33.088Z,5.40
2022-09-20T21:04:02.206Z,5.30
2022-09-20T21:06:34.373Z,5.50
2022-09-20T21:09:04.448Z,4.90
2022-09-20T21:11:39.217Z,5.60
2022-09-20T21:14:07.477Z,5.40
2022-09-20T21:16:38.519Z,5.90
2022-09-20T21:19:07.068Z,5.50
2022-09-20T21:21:39.139Z,5.40
2022-09-20T21:24:09.988Z,6.10
2022-09-20T21:26:39.760Z,5.80
2022-09-20T21:29:11.973Z,6.60
2022-09-20T21:31:43.492Z,6.00
2022-09-20T21:34:13.921Z,5.50
2022-09-20T21:36:42.761Z,6.20
2022-09-20T21:39:10.836Z,5.80
2022-09-20T21:41:40.141Z,5.40
2022-09-20T21:44:12.053Z,5.70
2022-09-20T21:46:42.020Z,6.50
2022-09-20T21:49:12.173Z,5.80
2022-09-20T21:51:42.666Z,6.40
2022-09-20T21:54:11.538Z,6.10
2022-09-20T21:56:41.202Z,6.90
2022-09-20T21:59:09.526Z,6.60
2022-09-20T22:01:40.325Z,6.40
2022-09-20T22:06:44.711Z,5.90
2022-09-20T22:09:15.713Z,6.40
2022-09-20T22:11:48.718Z,6.50
2022-09-20T22:14:19.681Z,6.80
2022-09-20T22:16:49.186Z,6.50
2022-09-20T22:19:18.496Z,6.90
2022-09-20T22:21:49.788Z,5.90
2022-09-20T22:24:18.556Z,6.60
2022-09-20T22:26:50.379Z,6.60
2022-09-20T22:29:18.661Z,6.80
2022-09-20T22:31:50.035Z,6.40
2022-09-20T22:34:24.157Z,7.30
2022-09-20T22:36:52.449Z,6.50
2022-09-20T22:39:20.198Z,6.80
2022-09-20T22:41:48.302Z,6.70
2022-09-20T22:44:16.357Z,7.60
2022-09-20T22:46:44.094Z,7.60
2022-09-20T22:49:11.877Z,8.30
2022-09-20T22:51:39.961Z,7.80
2022-09-20T22:54:11.624Z,7.70
2022-09-20T22:56:43.560Z,7.70
2022-09-20T22:59:14.526Z,7.70
2022-09-20T23:01:46.154Z,8.30
2022-09-20T23:04:20.007Z,8.30
2022-09-20T23:06:56.367Z,7.90
2022-09-20T23:09:28.143Z,8.50
2022-09-20T23:11:56.465Z,8.30
2022-09-20T23:14:24.253Z,8.80
2022-09-20T23:16:52.937Z,8.50
2022-09-20T23:19:20.875Z,8.50
2022-09-20T23:21:48.603Z,8.30
2022-09-20T23:24:16.766Z,8.40
2022-09-20T23:26:45.480Z,8.40
2022-09-20T23:29:16.590Z,8.20
2022-09-20T23:31:47.511Z,8.20
2022-09-20T23:34:17.412Z,9.10
2022-09-20T23:36:46.006Z,8.60
2022-09-20T23:39:14.563Z,8.70
2022-09-20T23:41:46.974Z,8.30
2022-09-20T23:44:16.289Z,8.20
2022-09-20T23:46:44.020Z,8.10
2022-09-20T23:49:11.702Z,8.60
2022-09-20T23:51:39.455Z,8.90
2022-09-20T23:54:07.333Z,7.70
2022-09-20T23:56:36.463Z,7.70
2022-09-20T23:59:04.265Z,8.50
